SAS42R EHAM-EKCH
Flight info
| Callsign | SAS42R |
|---|---|
| Flight time | 1h 1m |
| Altitude | 37000 |
| Route | ANDIK N873 JUIST DCT DOSUR P729 TUDLO |
| Aircraft | A319/M-SDE3FGHIRWY/LB1 |
Departure
| Time | 2026-04-30 18:54 |
|---|---|
| Airport | Amsterdam Airport Schiphol (EHAM) |
Arrival
| Time | 2026-04-30 19:56 |
|---|---|
| Airport | Copenhagen Kastrup Airport (EKCH) |
| Time | Latitude | Longitude | Altitude | Speed | Heading |
|---|---|---|---|---|---|
| 2026-04-30 18:33 | 52.30898 | 4.77303 | -2 ft | 0 kts | 3° |
| 2026-04-30 18:42 | 52.30885 | 4.77302 | -2 ft | 4 kts | 7° |
| 2026-04-30 18:42 | 52.30861 | 4.77293 | -2 ft | 2 kts | 20° |
| 2026-04-30 18:45 | 52.30842 | 4.77182 | -2 ft | 0 kts | 95° |
| 2026-04-30 18:46 | 52.30842 | 4.77191 | -2 ft | 4 kts | 95° |
| 2026-04-30 18:46 | 52.30839 | 4.77275 | -2 ft | 4 kts | 92° |
| 2026-04-30 18:46 | 52.30838 | 4.77344 | -2 ft | 8 kts | 93° |
| 2026-04-30 18:46 | 52.30834 | 4.77486 | -2 ft | 16 kts | 94° |
| 2026-04-30 18:47 | 52.30868 | 4.77601 | -2 ft | 11 kts | 21° |
| 2026-04-30 18:47 | 52.30951 | 4.77616 | -2 ft | 12 kts | 1° |
| 2026-04-30 18:47 | 52.31039 | 4.77614 | -2 ft | 14 kts | 14° |
| 2026-04-30 18:47 | 52.31174 | 4.77637 | -2 ft | 28 kts | 4° |
| 2026-04-30 18:48 | 52.31386 | 4.77653 | -2 ft | 25 kts | 359° |
| 2026-04-30 18:48 | 52.31507 | 4.77574 | -2 ft | 15 kts | 317° |
| 2026-04-30 18:48 | 52.31576 | 4.77385 | -2 ft | 23 kts | 277° |
| 2026-04-30 18:48 | 52.31570 | 4.77232 | -3 ft | 23 kts | 268° |
| 2026-04-30 18:49 | 52.31567 | 4.77105 | -3 ft | 24 kts | 267° |
| 2026-04-30 18:49 | 52.31558 | 4.76757 | -2 ft | 38 kts | 267° |
| 2026-04-30 18:49 | 52.31543 | 4.76363 | -2 ft | 28 kts | 268° |
| 2026-04-30 18:49 | 52.31536 | 4.76060 | -2 ft | 25 kts | 268° |
| 2026-04-30 18:50 | 52.31528 | 4.75924 | -2 ft | 8 kts | 263° |
| 2026-04-30 18:50 | 52.31525 | 4.75828 | -2 ft | 10 kts | 268° |
| 2026-04-30 18:51 | 52.31498 | 4.75012 | -2 ft | 17 kts | 266° |
| 2026-04-30 18:51 | 52.31490 | 4.74838 | -2 ft | 14 kts | 265° |
| 2026-04-30 18:51 | 52.31488 | 4.74723 | -2 ft | 7 kts | 274° |
| 2026-04-30 18:52 | 52.31524 | 4.74675 | -2 ft | 13 kts | 347° |
| 2026-04-30 18:52 | 52.31564 | 4.74653 | -2 ft | 0 kts | 1° |
| 2026-04-30 18:53 | 52.31584 | 4.74656 | 0 ft | 8 kts | 5° |
| 2026-04-30 18:53 | 52.31665 | 4.74726 | 0 ft | 16 kts | 63° |
| 2026-04-30 18:53 | 52.31674 | 4.75002 | -6 ft | 50 kts | 87° |
| 2026-04-30 18:54 | 52.31706 | 4.75930 | -3 ft | 110 kts | 87° |
| 2026-04-30 18:54 | 52.31758 | 4.77448 | 39 ft | 157 kts | 88° |
| 2026-04-30 18:54 | 52.31834 | 4.79297 | 581 ft | 172 kts | 88° |
| 2026-04-30 18:54 | 52.31938 | 4.81324 | 1272 ft | 179 kts | 88° |
| 2026-04-30 18:55 | 52.32049 | 4.83353 | 2157 ft | 184 kts | 89° |
| 2026-04-30 18:55 | 52.32290 | 4.87890 | 3258 ft | 231 kts | 89° |
| 2026-04-30 18:55 | 52.32681 | 4.90556 | 4054 ft | 254 kts | 67° |
| 2026-04-30 18:56 | 52.34780 | 4.95443 | 5929 ft | 267 kts | 59° |
| 2026-04-30 18:56 | 52.35517 | 4.97109 | 6132 ft | 267 kts | 59° |
| 2026-04-30 18:56 | 52.36590 | 4.99542 | 6293 ft | 266 kts | 59° |
| 2026-04-30 18:57 | 52.38749 | 5.04470 | 6324 ft | 266 kts | 59° |
| 2026-04-30 18:57 | 52.39825 | 5.06929 | 6329 ft | 266 kts | 59° |
| 2026-04-30 18:57 | 52.40906 | 5.09398 | 6324 ft | 267 kts | 58° |
| 2026-04-30 18:58 | 52.43763 | 5.13388 | 6328 ft | 277 kts | 32° |
| 2026-04-30 18:58 | 52.45636 | 5.14515 | 6869 ft | 291 kts | 18° |
| 2026-04-30 18:58 | 52.47584 | 5.15329 | 7945 ft | 289 kts | 19° |
| 2026-04-30 18:59 | 52.51505 | 5.17070 | 9929 ft | 295 kts | 20° |
| 2026-04-30 19:00 | 52.57881 | 5.19952 | 11815 ft | 336 kts | 19° |
| 2026-04-30 19:00 | 52.60186 | 5.20972 | 12646 ft | 341 kts | 19° |
| 2026-04-30 19:00 | 52.64796 | 5.22994 | 13300 ft | 346 kts | 19° |
| 2026-04-30 19:01 | 52.69460 | 5.25045 | 13331 ft | 346 kts | 19° |
| 2026-04-30 19:01 | 52.71738 | 5.26305 | 13339 ft | 342 kts | 28° |
| 2026-04-30 19:02 | 52.75550 | 5.30654 | 13336 ft | 332 kts | 50° |
| 2026-04-30 19:02 | 52.78457 | 5.36597 | 13994 ft | 334 kts | 56° |
| 2026-04-30 19:03 | 52.81343 | 5.42722 | 15456 ft | 340 kts | 56° |
| 2026-04-30 19:03 | 52.84249 | 5.48893 | 16887 ft | 347 kts | 56° |
| 2026-04-30 19:04 | 52.87293 | 5.55374 | 18357 ft | 354 kts | 56° |
| 2026-04-30 19:04 | 52.90308 | 5.61820 | 19623 ft | 361 kts | 56° |
| 2026-04-30 19:05 | 52.93422 | 5.68501 | 20884 ft | 369 kts | 55° |
| 2026-04-30 19:05 | 52.96599 | 5.75311 | 22102 ft | 376 kts | 54° |
| 2026-04-30 19:06 | 52.99821 | 5.82240 | 23282 ft | 384 kts | 54° |
| 2026-04-30 19:06 | 53.01464 | 5.85782 | 23881 ft | 388 kts | 54° |
| 2026-04-30 19:06 | 53.04771 | 5.92934 | 24888 ft | 394 kts | 54° |
| 2026-04-30 19:07 | 53.05509 | 5.94532 | 25110 ft | 396 kts | 54° |
| 2026-04-30 19:07 | 53.05733 | 5.95023 | 25180 ft | 396 kts | 55° |
| 2026-04-30 19:08 | 53.06217 | 5.96098 | 25080 ft | 393 kts | 51° |
| 2026-04-30 19:08 | 53.09754 | 6.03703 | 24010 ft | 445 kts | 52° |
| 2026-04-30 19:08 | 53.11723 | 6.07560 | 25176 ft | 427 kts | 51° |
| 2026-04-30 19:09 | 53.15451 | 6.14840 | 26959 ft | 409 kts | 56° |
| 2026-04-30 19:09 | 53.17183 | 6.18585 | 27518 ft | 410 kts | 51° |
| 2026-04-30 19:09 | 53.19058 | 6.22193 | 28044 ft | 412 kts | 49° |
| 2026-04-30 19:10 | 53.22922 | 6.29237 | 29021 ft | 416 kts | 49° |
| 2026-04-30 19:10 | 53.26227 | 6.35395 | 29826 ft | 421 kts | 49° |
| 2026-04-30 19:11 | 53.28015 | 6.38833 | 30260 ft | 424 kts | 50° |
| 2026-04-30 19:11 | 53.31850 | 6.46398 | 31072 ft | 429 kts | 50° |
| 2026-04-30 19:11 | 53.33781 | 6.50240 | 31454 ft | 431 kts | 50° |
| 2026-04-30 19:12 | 53.35694 | 6.54048 | 31817 ft | 433 kts | 50° |
| 2026-04-30 19:12 | 53.37653 | 6.57940 | 32197 ft | 435 kts | 50° |
| 2026-04-30 19:12 | 53.39611 | 6.61827 | 32709 ft | 434 kts | 50° |
| 2026-04-30 19:13 | 53.43501 | 6.69527 | 33782 ft | 431 kts | 49° |
| 2026-04-30 19:13 | 53.47369 | 6.77199 | 34795 ft | 428 kts | 49° |
| 2026-04-30 19:13 | 53.49453 | 6.81352 | 35277 ft | 427 kts | 49° |
| 2026-04-30 19:14 | 53.51211 | 6.84859 | 35690 ft | 426 kts | 49° |
| 2026-04-30 19:14 | 53.53112 | 6.88660 | 36108 ft | 425 kts | 49° |
| 2026-04-30 19:14 | 53.55018 | 6.92481 | 36534 ft | 424 kts | 49° |
| 2026-04-30 19:14 | 53.56920 | 6.96294 | 36937 ft | 424 kts | 49° |
| 2026-04-30 19:15 | 53.58813 | 7.00092 | 37310 ft | 424 kts | 49° |
| 2026-04-30 19:15 | 53.62607 | 7.07727 | 37427 ft | 421 kts | 49° |
| 2026-04-30 19:15 | 53.64487 | 7.11515 | 37423 ft | 421 kts | 49° |
| 2026-04-30 19:16 | 53.68221 | 7.19066 | 37427 ft | 420 kts | 49° |
| 2026-04-30 19:17 | 53.73823 | 7.30423 | 37426 ft | 420 kts | 49° |
| 2026-04-30 19:17 | 53.79442 | 7.41876 | 37432 ft | 420 kts | 49° |
| 2026-04-30 19:18 | 53.85015 | 7.53302 | 37440 ft | 420 kts | 49° |
| 2026-04-30 19:19 | 53.88741 | 7.60972 | 37441 ft | 421 kts | 49° |
| 2026-04-30 19:19 | 53.94324 | 7.72493 | 37447 ft | 421 kts | 49° |
| 2026-04-30 19:20 | 53.98026 | 7.80150 | 37448 ft | 420 kts | 49° |
| 2026-04-30 19:21 | 54.03587 | 7.91717 | 37444 ft | 421 kts | 50° |
| 2026-04-30 19:22 | 54.10974 | 8.07169 | 37451 ft | 420 kts | 50° |
| 2026-04-30 19:23 | 54.22001 | 8.30410 | 37451 ft | 420 kts | 50° |
| 2026-04-30 19:24 | 54.27501 | 8.42087 | 37447 ft | 420 kts | 50° |
| 2026-04-30 19:25 | 54.36652 | 8.61619 | 37446 ft | 420 kts | 50° |
| 2026-04-30 19:26 | 54.43921 | 8.77257 | 37440 ft | 420 kts | 50° |
| 2026-04-30 19:27 | 54.48796 | 8.87787 | 37442 ft | 420 kts | 50° |
| 2026-04-30 19:28 | 54.54250 | 8.99652 | 37444 ft | 420 kts | 50° |
| 2026-04-30 19:29 | 54.61483 | 9.15448 | 37124 ft | 419 kts | 50° |
| 2026-04-30 19:29 | 54.63296 | 9.19419 | 36586 ft | 420 kts | 50° |
| 2026-04-30 19:30 | 54.68668 | 9.31249 | 35172 ft | 415 kts | 50° |
| 2026-04-30 19:30 | 54.72203 | 9.39071 | 34318 ft | 409 kts | 50° |
| 2026-04-30 19:31 | 54.75681 | 9.46785 | 33375 ft | 402 kts | 50° |
| 2026-04-30 19:31 | 54.77400 | 9.50604 | 32923 ft | 399 kts | 50° |
| 2026-04-30 19:31 | 54.80771 | 9.58097 | 32041 ft | 392 kts | 50° |
| 2026-04-30 19:32 | 54.82444 | 9.61829 | 31623 ft | 389 kts | 50° |
| 2026-04-30 19:32 | 54.83929 | 9.65750 | 31206 ft | 389 kts | 62° |
| 2026-04-30 19:32 | 54.84976 | 9.70082 | 30792 ft | 387 kts | 65° |
| 2026-04-30 19:32 | 54.85975 | 9.74343 | 30365 ft | 385 kts | 65° |
| 2026-04-30 19:33 | 54.86982 | 9.78662 | 29903 ft | 382 kts | 65° |
| 2026-04-30 19:33 | 54.87969 | 9.82910 | 29473 ft | 379 kts | 65° |
| 2026-04-30 19:33 | 54.88955 | 9.87170 | 29068 ft | 376 kts | 65° |
| 2026-04-30 19:33 | 54.89928 | 9.91384 | 28667 ft | 373 kts | 65° |
| 2026-04-30 19:34 | 54.90884 | 9.95522 | 28282 ft | 370 kts | 65° |
| 2026-04-30 19:34 | 54.91844 | 9.99672 | 27885 ft | 367 kts | 65° |
| 2026-04-30 19:34 | 54.93744 | 10.07876 | 27081 ft | 362 kts | 65° |
| 2026-04-30 19:35 | 54.94671 | 10.11902 | 26688 ft | 359 kts | 65° |
| 2026-04-30 19:35 | 54.95596 | 10.15925 | 26285 ft | 356 kts | 65° |
| 2026-04-30 19:35 | 54.96508 | 10.19899 | 25885 ft | 354 kts | 65° |
| 2026-04-30 19:35 | 54.97423 | 10.23898 | 25480 ft | 351 kts | 65° |
| 2026-04-30 19:36 | 54.98337 | 10.27901 | 25072 ft | 348 kts | 66° |
| 2026-04-30 19:36 | 54.99224 | 10.31797 | 24723 ft | 345 kts | 66° |
| 2026-04-30 19:36 | 55.00987 | 10.39556 | 24097 ft | 345 kts | 66° |
| 2026-04-30 19:37 | 55.01870 | 10.43451 | 23587 ft | 344 kts | 66° |
| 2026-04-30 19:37 | 55.02748 | 10.47337 | 23068 ft | 343 kts | 66° |
| 2026-04-30 19:37 | 55.03616 | 10.51192 | 22561 ft | 342 kts | 66° |
| 2026-04-30 19:37 | 55.04486 | 10.55060 | 22069 ft | 340 kts | 66° |
| 2026-04-30 19:38 | 55.05335 | 10.58839 | 21577 ft | 338 kts | 66° |
| 2026-04-30 19:38 | 55.06191 | 10.62652 | 21091 ft | 336 kts | 66° |
| 2026-04-30 19:38 | 55.07042 | 10.66454 | 20616 ft | 335 kts | 66° |
| 2026-04-30 19:38 | 55.07889 | 10.70247 | 20144 ft | 333 kts | 66° |
| 2026-04-30 19:39 | 55.08730 | 10.74010 | 19677 ft | 331 kts | 66° |
| 2026-04-30 19:39 | 55.09554 | 10.77703 | 19234 ft | 329 kts | 66° |
| 2026-04-30 19:39 | 55.10382 | 10.81423 | 18785 ft | 327 kts | 66° |
| 2026-04-30 19:39 | 55.11203 | 10.85124 | 18284 ft | 325 kts | 67° |
| 2026-04-30 19:40 | 55.12014 | 10.88794 | 17777 ft | 323 kts | 67° |
| 2026-04-30 19:40 | 55.12818 | 10.92431 | 17279 ft | 321 kts | 67° |
| 2026-04-30 19:40 | 55.13627 | 10.96086 | 16797 ft | 319 kts | 67° |
| 2026-04-30 19:40 | 55.14427 | 10.99705 | 16311 ft | 317 kts | 68° |
| 2026-04-30 19:41 | 55.15208 | 11.03248 | 15842 ft | 315 kts | 68° |
| 2026-04-30 19:41 | 55.15992 | 11.06816 | 15390 ft | 313 kts | 68° |
| 2026-04-30 19:41 | 55.16770 | 11.10370 | 14920 ft | 311 kts | 68° |
| 2026-04-30 19:41 | 55.17544 | 11.13908 | 14465 ft | 309 kts | 68° |
| 2026-04-30 19:42 | 55.18313 | 11.17415 | 13991 ft | 307 kts | 68° |
| 2026-04-30 19:42 | 55.19069 | 11.20868 | 13491 ft | 306 kts | 68° |
| 2026-04-30 19:42 | 55.19827 | 11.24349 | 12996 ft | 304 kts | 68° |
| 2026-04-30 19:42 | 55.20578 | 11.27815 | 12543 ft | 302 kts | 69° |
| 2026-04-30 19:43 | 55.21309 | 11.31185 | 12432 ft | 290 kts | 68° |
| 2026-04-30 19:43 | 55.22022 | 11.34470 | 12441 ft | 287 kts | 68° |
| 2026-04-30 19:43 | 55.22729 | 11.37727 | 12449 ft | 286 kts | 68° |
| 2026-04-30 19:44 | 55.24134 | 11.44228 | 11929 ft | 285 kts | 68° |
| 2026-04-30 19:44 | 55.24836 | 11.47487 | 11608 ft | 284 kts | 68° |
| 2026-04-30 19:44 | 55.25522 | 11.50678 | 11293 ft | 283 kts | 68° |
| 2026-04-30 19:44 | 55.26216 | 11.53913 | 10974 ft | 282 kts | 68° |
| 2026-04-30 19:45 | 55.26903 | 11.57127 | 10656 ft | 282 kts | 69° |
| 2026-04-30 19:45 | 55.27592 | 11.60345 | 10354 ft | 281 kts | 68° |
| 2026-04-30 19:45 | 55.28279 | 11.63552 | 10009 ft | 279 kts | 68° |
| 2026-04-30 19:45 | 55.28720 | 11.65611 | 9793 ft | 278 kts | 69° |
| 2026-04-30 19:46 | 55.29408 | 11.68830 | 9450 ft | 276 kts | 69° |
| 2026-04-30 19:46 | 55.30078 | 11.71976 | 9111 ft | 274 kts | 69° |
| 2026-04-30 19:46 | 55.30741 | 11.75110 | 8781 ft | 272 kts | 69° |
| 2026-04-30 19:46 | 55.31403 | 11.78230 | 8449 ft | 271 kts | 69° |
| 2026-04-30 19:47 | 55.32061 | 11.81331 | 8126 ft | 269 kts | 69° |
| 2026-04-30 19:47 | 55.32491 | 11.83366 | 7910 ft | 268 kts | 69° |
| 2026-04-30 19:47 | 55.33357 | 11.87469 | 7478 ft | 266 kts | 69° |
| 2026-04-30 19:47 | 55.33994 | 11.90490 | 7168 ft | 265 kts | 69° |
| 2026-04-30 19:48 | 55.34636 | 11.93527 | 6855 ft | 263 kts | 69° |
| 2026-04-30 19:48 | 55.35273 | 11.96551 | 6521 ft | 262 kts | 69° |
| 2026-04-30 19:48 | 55.35897 | 11.99522 | 6181 ft | 261 kts | 69° |
| 2026-04-30 19:48 | 55.36526 | 12.02530 | 5864 ft | 261 kts | 69° |
| 2026-04-30 19:49 | 55.37153 | 12.05530 | 5538 ft | 261 kts | 69° |
| 2026-04-30 19:49 | 55.38401 | 12.11497 | 4884 ft | 260 kts | 69° |
| 2026-04-30 19:49 | 55.39026 | 12.14499 | 4560 ft | 260 kts | 69° |
| 2026-04-30 19:50 | 55.39648 | 12.17499 | 4227 ft | 260 kts | 69° |
| 2026-04-30 19:50 | 55.40268 | 12.20484 | 3896 ft | 259 kts | 69° |
| 2026-04-30 19:50 | 55.40887 | 12.23470 | 3578 ft | 258 kts | 69° |
| 2026-04-30 19:50 | 55.41494 | 12.26408 | 3246 ft | 257 kts | 68° |
| 2026-04-30 19:51 | 55.42099 | 12.29340 | 3020 ft | 248 kts | 68° |
| 2026-04-30 19:51 | 55.42669 | 12.32106 | 2995 ft | 228 kts | 68° |
| 2026-04-30 19:51 | 55.43186 | 12.34621 | 3000 ft | 209 kts | 67° |
| 2026-04-30 19:51 | 55.43898 | 12.36764 | 3013 ft | 199 kts | 45° |
| 2026-04-30 19:52 | 55.44910 | 12.38355 | 3014 ft | 196 kts | 39° |
| 2026-04-30 19:52 | 55.45934 | 12.39933 | 3005 ft | 195 kts | 39° |
| 2026-04-30 19:52 | 55.46962 | 12.41512 | 3001 ft | 195 kts | 39° |
| 2026-04-30 19:52 | 55.47991 | 12.43088 | 2919 ft | 196 kts | 39° |
| 2026-04-30 19:53 | 55.49017 | 12.44660 | 2702 ft | 195 kts | 38° |
| 2026-04-30 19:53 | 55.50042 | 12.46233 | 2457 ft | 194 kts | 38° |
| 2026-04-30 19:53 | 55.51057 | 12.47790 | 2199 ft | 193 kts | 37° |
| 2026-04-30 19:53 | 55.52054 | 12.49321 | 1937 ft | 190 kts | 37° |
| 2026-04-30 19:54 | 55.53020 | 12.50808 | 1720 ft | 176 kts | 37° |
| 2026-04-30 19:54 | 55.53907 | 12.52174 | 1458 ft | 161 kts | 37° |
| 2026-04-30 19:54 | 55.54701 | 12.53396 | 1249 ft | 147 kts | 36° |
| 2026-04-30 19:54 | 55.55444 | 12.54539 | 1060 ft | 137 kts | 36° |
| 2026-04-30 19:55 | 55.56149 | 12.55624 | 866 ft | 132 kts | 37° |
| 2026-04-30 19:55 | 55.56839 | 12.56684 | 698 ft | 131 kts | 38° |
| 2026-04-30 19:55 | 55.57518 | 12.57729 | 515 ft | 131 kts | 39° |
| 2026-04-30 19:55 | 55.58205 | 12.58788 | 335 ft | 130 kts | 39° |
| 2026-04-30 19:56 | 55.58882 | 12.59832 | 159 ft | 129 kts | 39° |
| 2026-04-30 19:56 | 55.59557 | 12.60876 | 30 ft | 124 kts | 39° |
| 2026-04-30 19:56 | 55.59926 | 12.61443 | 20 ft | 46 kts | 42° |
| 2026-04-30 19:56 | 55.60061 | 12.61655 | 23 ft | 2 kts | 41° |
| 2026-04-30 19:57 | 55.60202 | 12.61869 | 22 ft | 50 kts | 40° |
| 2026-04-30 19:57 | 55.60418 | 12.62190 | 23 ft | 31 kts | 39° |
| 2026-04-30 19:57 | 55.60502 | 12.62276 | 23 ft | 14 kts | 20° |
| 2026-04-30 19:57 | 55.60561 | 12.62310 | 25 ft | 8 kts | 17° |
| 2026-04-30 19:58 | 55.60616 | 12.62338 | 28 ft | 9 kts | 14° |
| 2026-04-30 19:58 | 55.60689 | 12.62361 | 27 ft | 13 kts | 8° |
| 2026-04-30 19:58 | 55.60795 | 12.62423 | 25 ft | 19 kts | 31° |
| 2026-04-30 19:58 | 55.60909 | 12.62581 | 23 ft | 24 kts | 41° |
| 2026-04-30 19:59 | 55.60999 | 12.62718 | 23 ft | 27 kts | 41° |
| 2026-04-30 19:59 | 55.61208 | 12.63034 | 30 ft | 32 kts | 40° |
| 2026-04-30 19:59 | 55.61498 | 12.63496 | 23 ft | 25 kts | 41° |
| 2026-04-30 20:00 | 55.61591 | 12.63636 | 24 ft | 28 kts | 39° |
| 2026-04-30 20:00 | 55.61706 | 12.63810 | 26 ft | 19 kts | 42° |
| 2026-04-30 20:00 | 55.61807 | 12.63979 | 27 ft | 22 kts | 39° |
| 2026-04-30 20:00 | 55.61905 | 12.64102 | 28 ft | 15 kts | 30° |
| 2026-04-30 20:01 | 55.62172 | 12.64308 | 17 ft | 14 kts | 27° |
| 2026-04-30 20:01 | 55.62270 | 12.64392 | 18 ft | 17 kts | 17° |
| 2026-04-30 20:01 | 55.62390 | 12.64455 | 19 ft | 19 kts | 12° |
| 2026-04-30 20:02 | 55.62520 | 12.64399 | 21 ft | 10 kts | 308° |
| 2026-04-30 20:02 | 55.62565 | 12.64293 | 22 ft | 12 kts | 306° |
| 2026-04-30 20:03 | 55.62624 | 12.64280 | 23 ft | 3 kts | 32° |
| 2026-04-30 20:03 | 55.62662 | 12.64314 | 22 ft | 9 kts | 22° |
| 2026-04-30 20:03 | 55.62684 | 12.64357 | 21 ft | 12 kts | 82° |
| 2026-04-30 20:03 | 55.62670 | 12.64435 | 21 ft | 0 kts | 99° |